sensor_id;sensor_type;location;lat;lon;timestamp;P1;durP1;ratioP1;P2;durP2;ratioP2
22213;SDS011;11276;43.566;27.824;2022-11-22T00:00:33;10.97;;;6.73;;
22213;SDS011;11276;43.566;27.824;2022-11-22T00:03:00;10.90;;;7.50;;
22213;SDS011;11276;43.566;27.824;2022-11-22T00:05:27;10.80;;;7.53;;
22213;SDS011;11276;43.566;27.824;2022-11-22T00:07:53;10.40;;;7.87;;
22213;SDS011;11276;43.566;27.824;2022-11-22T00:10:20;11.27;;;7.90;;
22213;SDS011;11276;43.566;27.824;2022-11-22T00:12:47;11.90;;;8.17;;
22213;SDS011;11276;43.566;27.824;2022-11-22T00:15:13;10.63;;;7.43;;
22213;SDS011;11276;43.566;27.824;2022-11-22T00:17:40;10.37;;;7.60;;
22213;SDS011;11276;43.566;27.824;2022-11-22T00:20:07;9.30;;;7.03;;
22213;SDS011;11276;43.566;27.824;2022-11-22T00:22:35;11.87;;;7.70;;
22213;SDS011;11276;43.566;27.824;2022-11-22T00:25:06;14.63;;;7.73;;
22213;SDS011;11276;43.566;27.824;2022-11-22T00:27:33;10.23;;;7.10;;
22213;SDS011;11276;43.566;27.824;2022-11-22T00:30:00;11.50;;;7.77;;
22213;SDS011;11276;43.566;27.824;2022-11-22T00:32:27;9.60;;;7.30;;
22213;SDS011;11276;43.566;27.824;2022-11-22T00:34:54;11.07;;;7.50;;
22213;SDS011;11276;43.566;27.824;2022-11-22T00:37:20;10.40;;;7.40;;
22213;SDS011;11276;43.566;27.824;2022-11-22T00:39:47;14.37;;;8.87;;
22213;SDS011;11276;43.566;27.824;2022-11-22T00:42:14;10.30;;;7.40;;
22213;SDS011;11276;43.566;27.824;2022-11-22T00:44:40;12.50;;;8.50;;
22213;SDS011;11276;43.566;27.824;2022-11-22T00:47:07;12.93;;;8.10;;
22213;SDS011;11276;43.566;27.824;2022-11-22T00:49:34;14.23;;;8.63;;
22213;SDS011;11276;43.566;27.824;2022-11-22T00:52:00;14.27;;;9.93;;
22213;SDS011;11276;43.566;27.824;2022-11-22T00:54:27;12.40;;;8.03;;
22213;SDS011;11276;43.566;27.824;2022-11-22T00:56:54;14.17;;;9.23;;
22213;SDS011;11276;43.566;27.824;2022-11-22T00:59:20;14.00;;;8.87;;
22213;SDS011;11276;43.566;27.824;2022-11-22T01:01:47;11.83;;;9.03;;
22213;SDS011;11276;43.566;27.824;2022-11-22T01:04:14;13.80;;;9.50;;
22213;SDS011;11276;43.566;27.824;2022-11-22T01:06:40;12.47;;;7.70;;
22213;SDS011;11276;43.566;27.824;2022-11-22T01:09:07;12.70;;;8.83;;
22213;SDS011;11276;43.566;27.824;2022-11-22T01:11:34;10.97;;;7.80;;
22213;SDS011;11276;43.566;27.824;2022-11-22T01:14:01;14.83;;;9.60;;
22213;SDS011;11276;43.566;27.824;2022-11-22T01:16:27;13.10;;;8.70;;
22213;SDS011;11276;43.566;27.824;2022-11-22T01:18:54;15.13;;;8.60;;
22213;SDS011;11276;43.566;27.824;2022-11-22T01:21:21;12.93;;;9.53;;
22213;SDS011;11276;43.566;27.824;2022-11-22T01:23:47;15.80;;;9.57;;
22213;SDS011;11276;43.566;27.824;2022-11-22T01:26:16;13.00;;;8.90;;
22213;SDS011;11276;43.566;27.824;2022-11-22T01:28:42;15.30;;;10.00;;
22213;SDS011;11276;43.566;27.824;2022-11-22T01:31:09;13.23;;;8.97;;
22213;SDS011;11276;43.566;27.824;2022-11-22T01:33:36;14.30;;;9.20;;
22213;SDS011;11276;43.566;27.824;2022-11-22T01:36:02;15.10;;;9.33;;
22213;SDS011;11276;43.566;27.824;2022-11-22T01:38:29;12.53;;;9.10;;
22213;SDS011;11276;43.566;27.824;2022-11-22T01:40:56;12.70;;;8.60;;
22213;SDS011;11276;43.566;27.824;2022-11-22T01:43:24;13.70;;;9.17;;
22213;SDS011;11276;43.566;27.824;2022-11-22T01:45:55;13.40;;;8.90;;
22213;SDS011;11276;43.566;27.824;2022-11-22T01:51:24;16.93;;;10.03;;
22213;SDS011;11276;43.566;27.824;2022-11-22T01:53:55;12.50;;;8.40;;
22213;SDS011;11276;43.566;27.824;2022-11-22T01:56:27;12.93;;;9.10;;
22213;SDS011;11276;43.566;27.824;2022-11-22T01:58:57;15.20;;;9.60;;
22213;SDS011;11276;43.566;27.824;2022-11-22T02:01:28;19.50;;;10.03;;
22213;SDS011;11276;43.566;27.824;2022-11-22T02:03:56;12.13;;;8.77;;
22213;SDS011;11276;43.566;27.824;2022-11-22T02:06:35;13.37;;;9.30;;
22213;SDS011;11276;43.566;27.824;2022-11-22T02:09:10;14.53;;;9.23;;
22213;SDS011;11276;43.566;27.824;2022-11-22T02:11:40;11.53;;;8.30;;
22213;SDS011;11276;43.566;27.824;2022-11-22T02:14:13;15.73;;;10.23;;
22213;SDS011;11276;43.566;27.824;2022-11-22T02:16:42;13.37;;;9.27;;
22213;SDS011;11276;43.566;27.824;2022-11-22T02:19:13;13.00;;;8.30;;
22213;SDS011;11276;43.566;27.824;2022-11-22T02:21:44;12.40;;;7.73;;
22213;SDS011;11276;43.566;27.824;2022-11-22T02:24:29;15.17;;;10.13;;
22213;SDS011;11276;43.566;27.824;2022-11-22T02:27:04;12.60;;;8.57;;
22213;SDS011;11276;43.566;27.824;2022-11-22T02:29:31;15.57;;;9.80;;
22213;SDS011;11276;43.566;27.824;2022-11-22T02:31:58;15.50;;;9.00;;
22213;SDS011;11276;43.566;27.824;2022-11-22T02:34:25;14.57;;;10.03;;
22213;SDS011;11276;43.566;27.824;2022-11-22T02:36:52;11.67;;;8.53;;
22213;SDS011;11276;43.566;27.824;2022-11-22T02:39:21;14.70;;;9.57;;
22213;SDS011;11276;43.566;27.824;2022-11-22T02:41:52;12.23;;;9.00;;
22213;SDS011;11276;43.566;27.824;2022-11-22T02:44:20;15.20;;;9.70;;
22213;SDS011;11276;43.566;27.824;2022-11-22T02:46:48;15.37;;;9.50;;
22213;SDS011;11276;43.566;27.824;2022-11-22T02:49:18;16.20;;;9.90;;
22213;SDS011;11276;43.566;27.824;2022-11-22T02:51:46;14.07;;;9.87;;
22213;SDS011;11276;43.566;27.824;2022-11-22T02:54:13;16.20;;;10.50;;
22213;SDS011;11276;43.566;27.824;2022-11-22T02:56:41;16.40;;;10.63;;
22213;SDS011;11276;43.566;27.824;2022-11-22T02:59:07;17.03;;;11.80;;
22213;SDS011;11276;43.566;27.824;2022-11-22T03:01:34;17.43;;;11.50;;
22213;SDS011;11276;43.566;27.824;2022-11-22T03:04:01;14.47;;;10.13;;
22213;SDS011;11276;43.566;27.824;2022-11-22T03:06:28;16.87;;;11.10;;
22213;SDS011;11276;43.566;27.824;2022-11-22T03:08:55;14.47;;;9.87;;
22213;SDS011;11276;43.566;27.824;2022-11-22T03:11:22;16.27;;;9.60;;
22213;SDS011;11276;43.566;27.824;2022-11-22T03:13:49;16.93;;;10.20;;
22213;SDS011;11276;43.566;27.824;2022-11-22T03:16:16;13.50;;;9.70;;
22213;SDS011;11276;43.566;27.824;2022-11-22T03:18:43;15.47;;;10.20;;
22213;SDS011;11276;43.566;27.824;2022-11-22T03:21:10;14.83;;;9.23;;
22213;SDS011;11276;43.566;27.824;2022-11-22T03:23:36;14.73;;;9.07;;
22213;SDS011;11276;43.566;27.824;2022-11-22T03:26:10;17.93;;;9.60;;
22213;SDS011;11276;43.566;27.824;2022-11-22T03:28:37;17.10;;;10.53;;
22213;SDS011;11276;43.566;27.824;2022-11-22T03:31:04;16.40;;;10.50;;
22213;SDS011;11276;43.566;27.824;2022-11-22T03:33:32;14.20;;;9.40;;
22213;SDS011;11276;43.566;27.824;2022-11-22T03:35:59;13.57;;;9.10;;
22213;SDS011;11276;43.566;27.824;2022-11-22T03:38:26;17.70;;;9.87;;
22213;SDS011;11276;43.566;27.824;2022-11-22T03:40:53;17.70;;;9.80;;
22213;SDS011;11276;43.566;27.824;2022-11-22T03:43:20;14.83;;;9.80;;
22213;SDS011;11276;43.566;27.824;2022-11-22T03:45:47;14.83;;;9.30;;
22213;SDS011;11276;43.566;27.824;2022-11-22T03:48:14;13.23;;;10.07;;
22213;SDS011;11276;43.566;27.824;2022-11-22T03:50:41;17.93;;;10.70;;
22213;SDS011;11276;43.566;27.824;2022-11-22T03:53:07;14.90;;;10.53;;
22213;SDS011;11276;43.566;27.824;2022-11-22T03:55:34;13.20;;;9.63;;
22213;SDS011;11276;43.566;27.824;2022-11-22T03:58:01;15.77;;;9.90;;
22213;SDS011;11276;43.566;27.824;2022-11-22T04:00:27;15.77;;;10.60;;
22213;SDS011;11276;43.566;27.824;2022-11-22T04:02:54;14.10;;;9.83;;
22213;SDS011;11276;43.566;27.824;2022-11-22T04:05:21;13.27;;;9.63;;
22213;SDS011;11276;43.566;27.824;2022-11-22T04:07:48;15.70;;;10.60;;
22213;SDS011;11276;43.566;27.824;2022-11-22T04:10:15;15.47;;;10.20;;
22213;SDS011;11276;43.566;27.824;2022-11-22T04:12:46;14.30;;;9.60;;
22213;SDS011;11276;43.566;27.824;2022-11-22T04:15:12;14.27;;;9.50;;
22213;SDS011;11276;43.566;27.824;2022-11-22T04:17:39;15.50;;;9.57;;
22213;SDS011;11276;43.566;27.824;2022-11-22T04:23:00;13.30;;;9.63;;
22213;SDS011;11276;43.566;27.824;2022-11-22T04:25:29;16.20;;;11.43;;
22213;SDS011;11276;43.566;27.824;2022-11-22T04:27:57;16.30;;;10.00;;
22213;SDS011;11276;43.566;27.824;2022-11-22T04:30:24;17.93;;;10.63;;
22213;SDS011;11276;43.566;27.824;2022-11-22T04:33:10;16.20;;;11.40;;
22213;SDS011;11276;43.566;27.824;2022-11-22T04:35:38;14.80;;;10.67;;
22213;SDS011;11276;43.566;27.824;2022-11-22T04:38:05;15.90;;;10.30;;
22213;SDS011;11276;43.566;27.824;2022-11-22T04:40:32;19.27;;;11.10;;
22213;SDS011;11276;43.566;27.824;2022-11-22T04:42:59;15.23;;;10.40;;
22213;SDS011;11276;43.566;27.824;2022-11-22T04:45:45;16.40;;;10.30;;
22213;SDS011;11276;43.566;27.824;2022-11-22T04:48:12;17.43;;;11.70;;
22213;SDS011;11276;43.566;27.824;2022-11-22T04:50:39;19.80;;;10.77;;
22213;SDS011;11276;43.566;27.824;2022-11-22T04:53:26;16.47;;;10.40;;
22213;SDS011;11276;43.566;27.824;2022-11-22T04:55:54;17.40;;;10.70;;
22213;SDS011;11276;43.566;27.824;2022-11-22T04:58:21;15.60;;;9.90;;
22213;SDS011;11276;43.566;27.824;2022-11-22T05:00:48;16.87;;;10.80;;
22213;SDS011;11276;43.566;27.824;2022-11-22T05:03:15;17.23;;;11.20;;
22213;SDS011;11276;43.566;27.824;2022-11-22T05:05:42;16.50;;;10.73;;
22213;SDS011;11276;43.566;27.824;2022-11-22T05:08:10;16.00;;;9.77;;
22213;SDS011;11276;43.566;27.824;2022-11-22T05:10:37;21.00;;;10.67;;
22213;SDS011;11276;43.566;27.824;2022-11-22T05:13:23;20.00;;;9.97;;
22213;SDS011;11276;43.566;27.824;2022-11-22T05:15:55;16.80;;;10.70;;
22213;SDS011;11276;43.566;27.824;2022-11-22T05:18:23;19.53;;;10.93;;
22213;SDS011;11276;43.566;27.824;2022-11-22T05:20:51;15.37;;;11.07;;
22213;SDS011;11276;43.566;27.824;2022-11-22T05:23:18;17.07;;;10.83;;
22213;SDS011;11276;43.566;27.824;2022-11-22T05:26:04;18.80;;;11.30;;
22213;SDS011;11276;43.566;27.824;2022-11-22T05:28:32;18.57;;;12.57;;
22213;SDS011;11276;43.566;27.824;2022-11-22T05:31:13;19.00;;;11.40;;
22213;SDS011;11276;43.566;27.824;2022-11-22T05:33:49;19.73;;;10.63;;
22213;SDS011;11276;43.566;27.824;2022-11-22T05:36:17;17.77;;;11.73;;
22213;SDS011;11276;43.566;27.824;2022-11-22T05:38:44;21.30;;;12.10;;
22213;SDS011;11276;43.566;27.824;2022-11-22T05:41:12;16.47;;;12.17;;
22213;SDS011;11276;43.566;27.824;2022-11-22T05:43:40;20.17;;;11.03;;
22213;SDS011;11276;43.566;27.824;2022-11-22T05:46:07;21.00;;;11.77;;
22213;SDS011;11276;43.566;27.824;2022-11-22T05:48:36;19.27;;;12.40;;
22213;SDS011;11276;43.566;27.824;2022-11-22T05:51:07;22.47;;;12.80;;
22213;SDS011;11276;43.566;27.824;2022-11-22T05:53:35;22.17;;;12.80;;
22213;SDS011;11276;43.566;27.824;2022-11-22T05:56:10;23.33;;;12.93;;
22213;SDS011;11276;43.566;27.824;2022-11-22T05:58:48;20.20;;;12.50;;
22213;SDS011;11276;43.566;27.824;2022-11-22T06:01:16;24.17;;;12.93;;
22213;SDS011;11276;43.566;27.824;2022-11-22T06:03:45;20.53;;;13.27;;
22213;SDS011;11276;43.566;27.824;2022-11-22T06:06:13;20.20;;;12.80;;
22213;SDS011;11276;43.566;27.824;2022-11-22T06:08:40;20.97;;;12.90;;
22213;SDS011;11276;43.566;27.824;2022-11-22T06:11:17;18.90;;;11.77;;
22213;SDS011;11276;43.566;27.824;2022-11-22T06:13:52;19.00;;;12.50;;
22213;SDS011;11276;43.566;27.824;2022-11-22T06:16:20;16.20;;;10.60;;
22213;SDS011;11276;43.566;27.824;2022-11-22T06:18:48;17.63;;;10.80;;
22213;SDS011;11276;43.566;27.824;2022-11-22T06:21:16;17.93;;;12.03;;
22213;SDS011;11276;43.566;27.824;2022-11-22T06:23:49;17.93;;;11.27;;
22213;SDS011;11276;43.566;27.824;2022-11-22T06:26:19;19.30;;;12.10;;
22213;SDS011;11276;43.566;27.824;2022-11-22T06:28:47;18.83;;;12.33;;
22213;SDS011;11276;43.566;27.824;2022-11-22T06:31:18;18.13;;;12.30;;
22213;SDS011;11276;43.566;27.824;2022-11-22T06:33:49;20.27;;;11.63;;
22213;SDS011;11276;43.566;27.824;2022-11-22T06:36:28;20.13;;;12.07;;
22213;SDS011;11276;43.566;27.824;2022-11-22T06:38:56;19.40;;;12.53;;
22213;SDS011;11276;43.566;27.824;2022-11-22T06:41:24;21.80;;;12.50;;
22213;SDS011;11276;43.566;27.824;2022-11-22T06:43:53;21.47;;;12.57;;
22213;SDS011;11276;43.566;27.824;2022-11-22T06:46:24;20.43;;;12.80;;
22213;SDS011;11276;43.566;27.824;2022-11-22T06:48:53;19.23;;;12.57;;
22213;SDS011;11276;43.566;27.824;2022-11-22T06:51:23;18.07;;;11.47;;
22213;SDS011;11276;43.566;27.824;2022-11-22T06:53:51;20.23;;;12.77;;
22213;SDS011;11276;43.566;27.824;2022-11-22T06:56:23;18.80;;;12.20;;
22213;SDS011;11276;43.566;27.824;2022-11-22T06:58:51;37.50;;;12.80;;
22213;SDS011;11276;43.566;27.824;2022-11-22T07:01:23;21.20;;;13.30;;
22213;SDS011;11276;43.566;27.824;2022-11-22T07:03:52;25.37;;;13.20;;
22213;SDS011;11276;43.566;27.824;2022-11-22T07:06:30;23.33;;;13.63;;
22213;SDS011;11276;43.566;27.824;2022-11-22T07:08:59;27.70;;;14.13;;
22213;SDS011;11276;43.566;27.824;2022-11-22T07:11:27;23.23;;;14.20;;
22213;SDS011;11276;43.566;27.824;2022-11-22T07:13:56;24.10;;;14.00;;
22213;SDS011;11276;43.566;27.824;2022-11-22T07:16:28;21.80;;;13.80;;
22213;SDS011;11276;43.566;27.824;2022-11-22T07:18:57;25.77;;;13.93;;
22213;SDS011;11276;43.566;27.824;2022-11-22T07:21:25;23.63;;;14.13;;
22213;SDS011;11276;43.566;27.824;2022-11-22T07:23:54;19.60;;;12.90;;
22213;SDS011;11276;43.566;27.824;2022-11-22T07:26:21;17.97;;;12.77;;
22213;SDS011;11276;43.566;27.824;2022-11-22T07:28:49;21.57;;;13.63;;
22213;SDS011;11276;43.566;27.824;2022-11-22T07:31:16;21.70;;;13.83;;
22213;SDS011;11276;43.566;27.824;2022-11-22T07:33:44;21.70;;;13.97;;
22213;SDS011;11276;43.566;27.824;2022-11-22T07:38:47;18.97;;;12.50;;
22213;SDS011;11276;43.566;27.824;2022-11-22T07:41:15;20.60;;;11.77;;
22213;SDS011;11276;43.566;27.824;2022-11-22T07:43:43;19.40;;;12.10;;
22213;SDS011;11276;43.566;27.824;2022-11-22T07:48:56;15.87;;;10.00;;
22213;SDS011;11276;43.566;27.824;2022-11-22T07:51:23;15.87;;;9.97;;
22213;SDS011;11276;43.566;27.824;2022-11-22T07:53:50;13.23;;;9.97;;
22213;SDS011;11276;43.566;27.824;2022-11-22T07:56:17;14.90;;;10.30;;
22213;SDS011;11276;43.566;27.824;2022-11-22T07:58:44;17.03;;;10.60;;
22213;SDS011;11276;43.566;27.824;2022-11-22T08:01:11;15.63;;;11.00;;
22213;SDS011;11276;43.566;27.824;2022-11-22T08:03:40;20.83;;;13.70;;
22213;SDS011;11276;43.566;27.824;2022-11-22T08:06:08;16.50;;;11.70;;
22213;SDS011;11276;43.566;27.824;2022-11-22T08:08:36;18.23;;;11.37;;
22213;SDS011;11276;43.566;27.824;2022-11-22T08:11:03;17.00;;;10.70;;
22213;SDS011;11276;43.566;27.824;2022-11-22T08:13:31;15.43;;;9.60;;
22213;SDS011;11276;43.566;27.824;2022-11-22T08:16:09;14.43;;;10.03;;
22213;SDS011;11276;43.566;27.824;2022-11-22T08:18:38;14.40;;;10.23;;
22213;SDS011;11276;43.566;27.824;2022-11-22T08:21:09;14.77;;;9.40;;
22213;SDS011;11276;43.566;27.824;2022-11-22T08:23:38;14.37;;;8.80;;
22213;SDS011;11276;43.566;27.824;2022-11-22T08:26:06;13.60;;;9.43;;
22213;SDS011;11276;43.566;27.824;2022-11-22T08:28:34;13.07;;;9.07;;
22213;SDS011;11276;43.566;27.824;2022-11-22T08:31:03;13.50;;;9.20;;
22213;SDS011;11276;43.566;27.824;2022-11-22T08:33:32;16.77;;;10.70;;
22213;SDS011;11276;43.566;27.824;2022-11-22T08:35:58;14.67;;;8.97;;
22213;SDS011;11276;43.566;27.824;2022-11-22T08:38:26;18.20;;;9.60;;
22213;SDS011;11276;43.566;27.824;2022-11-22T08:40:53;14.90;;;9.90;;
22213;SDS011;11276;43.566;27.824;2022-11-22T08:43:19;16.20;;;9.70;;
22213;SDS011;11276;43.566;27.824;2022-11-22T08:45:47;15.53;;;9.90;;
22213;SDS011;11276;43.566;27.824;2022-11-22T08:48:18;15.53;;;10.37;;
22213;SDS011;11276;43.566;27.824;2022-11-22T08:50:51;14.10;;;9.60;;
22213;SDS011;11276;43.566;27.824;2022-11-22T08:53:22;15.03;;;9.47;;
22213;SDS011;11276;43.566;27.824;2022-11-22T08:55:49;16.83;;;9.90;;
22213;SDS011;11276;43.566;27.824;2022-11-22T08:58:17;14.60;;;9.60;;
22213;SDS011;11276;43.566;27.824;2022-11-22T09:00:44;16.90;;;10.07;;
22213;SDS011;11276;43.566;27.824;2022-11-22T09:03:10;13.47;;;9.77;;
22213;SDS011;11276;43.566;27.824;2022-11-22T09:05:37;15.60;;;10.50;;
22213;SDS011;11276;43.566;27.824;2022-11-22T09:08:24;13.70;;;9.40;;
22213;SDS011;11276;43.566;27.824;2022-11-22T09:10:50;15.70;;;10.37;;
22213;SDS011;11276;43.566;27.824;2022-11-22T09:13:18;13.10;;;9.20;;
22213;SDS011;11276;43.566;27.824;2022-11-22T09:15:45;14.90;;;9.40;;
22213;SDS011;11276;43.566;27.824;2022-11-22T09:18:12;12.50;;;8.90;;
22213;SDS011;11276;43.566;27.824;2022-11-22T09:20:38;13.87;;;9.40;;
22213;SDS011;11276;43.566;27.824;2022-11-22T09:23:05;17.87;;;9.87;;
22213;SDS011;11276;43.566;27.824;2022-11-22T09:25:32;11.57;;;8.50;;
22213;SDS011;11276;43.566;27.824;2022-11-22T09:27:59;12.03;;;8.37;;
22213;SDS011;11276;43.566;27.824;2022-11-22T09:30:28;12.50;;;8.50;;
22213;SDS011;11276;43.566;27.824;2022-11-22T09:32:55;17.30;;;9.43;;
22213;SDS011;11276;43.566;27.824;2022-11-22T09:35:22;14.13;;;8.80;;
22213;SDS011;11276;43.566;27.824;2022-11-22T09:37:49;15.13;;;9.27;;
22213;SDS011;11276;43.566;27.824;2022-11-22T09:40:15;11.33;;;7.60;;
22213;SDS011;11276;43.566;27.824;2022-11-22T09:45:30;15.70;;;8.17;;
22213;SDS011;11276;43.566;27.824;2022-11-22T09:48:06;15.57;;;8.67;;
22213;SDS011;11276;43.566;27.824;2022-11-22T09:54:02;13.20;;;7.87;;
22213;SDS011;11276;43.566;27.824;2022-11-22T09:56:33;16.03;;;8.17;;
22213;SDS011;11276;43.566;27.824;2022-11-22T09:59:18;13.30;;;8.40;;
22213;SDS011;11276;43.566;27.824;2022-11-22T10:01:52;12.10;;;8.00;;
22213;SDS011;11276;43.566;27.824;2022-11-22T10:07:00;11.70;;;7.37;;
22213;SDS011;11276;43.566;27.824;2022-11-22T10:09:57;10.43;;;6.70;;
22213;SDS011;11276;43.566;27.824;2022-11-22T10:12:43;11.03;;;7.20;;
22213;SDS011;11276;43.566;27.824;2022-11-22T10:20:47;12.07;;;7.63;;
22213;SDS011;11276;43.566;27.824;2022-11-22T10:23:21;10.93;;;7.67;;
22213;SDS011;11276;43.566;27.824;2022-11-22T10:25:55;9.83;;;6.97;;
22213;SDS011;11276;43.566;27.824;2022-11-22T10:41:48;11.23;;;6.13;;
22213;SDS011;11276;43.566;27.824;2022-11-22T10:44:30;8.63;;;5.90;;
22213;SDS011;11276;43.566;27.824;2022-11-22T11:00:19;8.57;;;5.20;;
22213;SDS011;11276;43.566;27.824;2022-11-22T11:08:13;7.67;;;5.00;;
22213;SDS011;11276;43.566;27.824;2022-11-22T11:11:04;10.00;;;5.27;;
22213;SDS011;11276;43.566;27.824;2022-11-22T11:13:40;7.57;;;5.67;;
22213;SDS011;11276;43.566;27.824;2022-11-22T11:16:11;8.07;;;5.73;;
22213;SDS011;11276;43.566;27.824;2022-11-22T11:21:17;7.80;;;5.30;;
22213;SDS011;11276;43.566;27.824;2022-11-22T11:23:44;7.93;;;5.57;;
22213;SDS011;11276;43.566;27.824;2022-11-22T11:26:15;8.40;;;5.30;;
22213;SDS011;11276;43.566;27.824;2022-11-22T11:28:43;11.53;;;5.40;;
22213;SDS011;11276;43.566;27.824;2022-11-22T11:31:11;10.07;;;5.90;;
22213;SDS011;11276;43.566;27.824;2022-11-22T11:33:44;8.90;;;5.50;;
22213;SDS011;11276;43.566;27.824;2022-11-22T11:36:18;6.93;;;4.90;;
22213;SDS011;11276;43.566;27.824;2022-11-22T11:38:54;7.40;;;5.57;;
22213;SDS011;11276;43.566;27.824;2022-11-22T11:44:00;6.77;;;5.50;;
22213;SDS011;11276;43.566;27.824;2022-11-22T11:46:52;6.00;;;4.60;;
22213;SDS011;11276;43.566;27.824;2022-11-22T11:49:17;5.83;;;4.30;;
22213;SDS011;11276;43.566;27.824;2022-11-22T11:51:46;5.47;;;4.50;;
22213;SDS011;11276;43.566;27.824;2022-11-22T11:54:25;5.93;;;4.60;;
22213;SDS011;11276;43.566;27.824;2022-11-22T11:57:20;5.30;;;4.33;;
22213;SDS011;11276;43.566;27.824;2022-11-22T11:59:56;6.97;;;4.57;;
22213;SDS011;11276;43.566;27.824;2022-11-22T12:02:37;6.57;;;4.40;;
22213;SDS011;11276;43.566;27.824;2022-11-22T12:13:16;6.73;;;4.20;;
22213;SDS011;11276;43.566;27.824;2022-11-22T12:21:35;5.90;;;4.37;;
22213;SDS011;11276;43.566;27.824;2022-11-22T12:24:41;5.20;;;4.03;;
22213;SDS011;11276;43.566;27.824;2022-11-22T12:27:28;4.23;;;3.50;;
22213;SDS011;11276;43.566;27.824;2022-11-22T12:29:56;7.17;;;4.50;;
22213;SDS011;11276;43.566;27.824;2022-11-22T12:32:25;6.57;;;4.30;;
22213;SDS011;11276;43.566;27.824;2022-11-22T12:35:17;7.83;;;4.23;;
22213;SDS011;11276;43.566;27.824;2022-11-22T12:40:19;5.80;;;4.63;;
22213;SDS011;11276;43.566;27.824;2022-11-22T12:42:52;8.00;;;4.37;;
22213;SDS011;11276;43.566;27.824;2022-11-22T12:45:38;8.60;;;4.90;;
22213;SDS011;11276;43.566;27.824;2022-11-22T12:48:08;9.20;;;5.10;;
22213;SDS011;11276;43.566;27.824;2022-11-22T12:50:43;5.60;;;3.90;;
22213;SDS011;11276;43.566;27.824;2022-11-22T12:53:14;6.00;;;4.00;;
22213;SDS011;11276;43.566;27.824;2022-11-22T12:55:48;10.77;;;4.57;;
22213;SDS011;11276;43.566;27.824;2022-11-22T12:58:23;8.30;;;4.87;;
22213;SDS011;11276;43.566;27.824;2022-11-22T13:03:47;8.10;;;4.93;;
22213;SDS011;11276;43.566;27.824;2022-11-22T13:06:22;6.03;;;4.50;;
22213;SDS011;11276;43.566;27.824;2022-11-22T13:11:38;7.03;;;4.50;;
22213;SDS011;11276;43.566;27.824;2022-11-22T13:14:32;6.67;;;4.90;;
22213;SDS011;11276;43.566;27.824;2022-11-22T13:17:08;10.07;;;4.80;;
22213;SDS011;11276;43.566;27.824;2022-11-22T13:19:41;9.23;;;5.30;;
22213;SDS011;11276;43.566;27.824;2022-11-22T13:25:10;5.43;;;4.07;;
22213;SDS011;11276;43.566;27.824;2022-11-22T13:28:05;10.10;;;4.87;;
22213;SDS011;11276;43.566;27.824;2022-11-22T13:30:39;5.13;;;3.67;;
22213;SDS011;11276;43.566;27.824;2022-11-22T13:33:28;5.77;;;4.10;;
22213;SDS011;11276;43.566;27.824;2022-11-22T13:38:53;6.57;;;3.93;;
22213;SDS011;11276;43.566;27.824;2022-11-22T13:46:51;9.10;;;4.40;;
22213;SDS011;11276;43.566;27.824;2022-11-22T13:57:32;7.57;;;5.27;;
22213;SDS011;11276;43.566;27.824;2022-11-22T14:02:40;8.87;;;4.60;;
22213;SDS011;11276;43.566;27.824;2022-11-22T14:05:16;14.53;;;4.97;;
22213;SDS011;11276;43.566;27.824;2022-11-22T14:07:48;7.83;;;5.40;;
22213;SDS011;11276;43.566;27.824;2022-11-22T14:10:27;9.83;;;6.40;;
22213;SDS011;11276;43.566;27.824;2022-11-22T14:21:07;20.50;;;8.17;;
22213;SDS011;11276;43.566;27.824;2022-11-22T14:32:22;13.40;;;8.37;;
22213;SDS011;11276;43.566;27.824;2022-11-22T14:45:02;15.07;;;9.00;;
22213;SDS011;11276;43.566;27.824;2022-11-22T14:47:32;17.13;;;9.70;;
22213;SDS011;11276;43.566;27.824;2022-11-22T14:50:00;16.70;;;10.30;;
22213;SDS011;11276;43.566;27.824;2022-11-22T14:52:34;18.47;;;10.13;;
22213;SDS011;11276;43.566;27.824;2022-11-22T14:55:03;17.60;;;10.60;;
22213;SDS011;11276;43.566;27.824;2022-11-22T14:57:34;18.27;;;11.23;;
22213;SDS011;11276;43.566;27.824;2022-11-22T15:00:04;22.57;;;12.23;;
22213;SDS011;11276;43.566;27.824;2022-11-22T15:06:07;17.83;;;11.63;;
22213;SDS011;11276;43.566;27.824;2022-11-22T15:08:46;19.37;;;12.33;;
22213;SDS011;11276;43.566;27.824;2022-11-22T15:11:38;22.93;;;13.10;;
22213;SDS011;11276;43.566;27.824;2022-11-22T15:17:02;21.33;;;11.83;;
22213;SDS011;11276;43.566;27.824;2022-11-22T15:19:35;23.80;;;11.93;;
22213;SDS011;11276;43.566;27.824;2022-11-22T15:22:27;23.00;;;13.30;;
22213;SDS011;11276;43.566;27.824;2022-11-22T15:25:15;20.20;;;12.60;;
22213;SDS011;11276;43.566;27.824;2022-11-22T15:28:04;20.23;;;12.40;;
22213;SDS011;11276;43.566;27.824;2022-11-22T15:30:51;24.50;;;12.57;;
22213;SDS011;11276;43.566;27.824;2022-11-22T15:33:54;22.60;;;11.93;;
22213;SDS011;11276;43.566;27.824;2022-11-22T15:39:37;20.30;;;12.70;;
22213;SDS011;11276;43.566;27.824;2022-11-22T15:42:25;19.03;;;11.63;;
22213;SDS011;11276;43.566;27.824;2022-11-22T15:45:12;21.23;;;11.47;;
22213;SDS011;11276;43.566;27.824;2022-11-22T15:48:04;18.10;;;11.30;;
22213;SDS011;11276;43.566;27.824;2022-11-22T15:51:16;18.67;;;10.00;;
22213;SDS011;11276;43.566;27.824;2022-11-22T15:57:02;17.20;;;10.17;;
22213;SDS011;11276;43.566;27.824;2022-11-22T15:59:47;19.70;;;11.00;;
22213;SDS011;11276;43.566;27.824;2022-11-22T16:02:19;19.17;;;10.87;;
22213;SDS011;11276;43.566;27.824;2022-11-22T16:05:06;20.17;;;11.23;;
22213;SDS011;11276;43.566;27.824;2022-11-22T16:07:35;17.73;;;11.30;;
22213;SDS011;11276;43.566;27.824;2022-11-22T16:10:05;19.67;;;12.53;;
22213;SDS011;11276;43.566;27.824;2022-11-22T16:12:42;16.20;;;11.63;;
22213;SDS011;11276;43.566;27.824;2022-11-22T16:15:17;17.37;;;10.80;;
22213;SDS011;11276;43.566;27.824;2022-11-22T16:17:48;18.40;;;9.97;;
22213;SDS011;11276;43.566;27.824;2022-11-22T16:28:23;16.23;;;9.10;;
22213;SDS011;11276;43.566;27.824;2022-11-22T16:30:54;15.17;;;8.93;;
22213;SDS011;11276;43.566;27.824;2022-11-22T16:33:22;15.80;;;9.17;;
22213;SDS011;11276;43.566;27.824;2022-11-22T16:35:56;14.97;;;8.83;;
22213;SDS011;11276;43.566;27.824;2022-11-22T16:38:25;17.07;;;9.20;;
22213;SDS011;11276;43.566;27.824;2022-11-22T16:40:54;19.03;;;9.20;;
22213;SDS011;11276;43.566;27.824;2022-11-22T16:43:23;17.37;;;9.37;;
22213;SDS011;11276;43.566;27.824;2022-11-22T16:45:51;18.90;;;8.80;;
22213;SDS011;11276;43.566;27.824;2022-11-22T16:48:21;15.70;;;9.60;;
22213;SDS011;11276;43.566;27.824;2022-11-22T16:50:57;16.83;;;9.00;;
22213;SDS011;11276;43.566;27.824;2022-11-22T16:53:50;10.27;;;7.83;;
22213;SDS011;11276;43.566;27.824;2022-11-22T16:58:45;17.00;;;8.90;;
22213;SDS011;11276;43.566;27.824;2022-11-22T17:01:14;12.03;;;7.80;;
22213;SDS011;11276;43.566;27.824;2022-11-22T17:03:44;14.37;;;7.63;;
22213;SDS011;11276;43.566;27.824;2022-11-22T17:06:13;13.73;;;8.13;;
22213;SDS011;11276;43.566;27.824;2022-11-22T17:08:45;14.63;;;7.57;;
22213;SDS011;11276;43.566;27.824;2022-11-22T17:11:14;12.23;;;7.93;;
22213;SDS011;11276;43.566;27.824;2022-11-22T17:13:42;11.57;;;7.83;;
22213;SDS011;11276;43.566;27.824;2022-11-22T17:16:09;10.77;;;7.30;;
22213;SDS011;11276;43.566;27.824;2022-11-22T17:18:37;10.90;;;7.07;;